Time;durP1;ratioP1;P1;durP2;ratioP2;P2;SDS_P1;SDS_P2;PMS_P1;PMS_P2;Temp;Humidity;BMP_temperature;BMP_pressure;BME280_temperature;BME280_humidity;BME280_pressure;Samples;Min_cycle;Max_cycle;Signal;HPM_P1;HPM_P2
2022/10/05 00:01:23;;;;;;;2.47;1.52;;;21.40;58.10;;;;;;5040541;28;20112;-67
2022/10/05 00:03:51;;;;;;;3.13;1.50;;;21.50;58.20;;;;;;5032455;28;20022;-66
2022/10/05 00:06:17;;;;;;;2.42;1.55;;;21.40;58.10;;;;;;5036361;28;20032;-67
2022/10/05 00:08:43;;;;;;;2.10;1.50;;;21.40;58.10;;;;;;5032026;28;20338;-67
2022/10/05 00:11:12;;;;;;;2.67;1.48;;;21.40;58.10;;;;;;5028351;28;20034;-67
2022/10/05 00:13:39;;;;;;;2.88;1.45;;;21.40;58.10;;;;;;5036904;28;20489;-67
2022/10/05 00:16:15;;;;;;;2.15;1.20;;;21.40;58.10;;;;;;5038976;28;20331;-67
2022/10/05 00:18:47;;;;;;;2.28;1.33;;;21.40;58.20;;;;;;5039318;28;20374;-67
2022/10/05 00:21:19;;;;;;;3.17;1.45;;;21.40;58.20;;;;;;5038206;28;20060;-67
2022/10/05 00:23:44;;;;;;;2.42;1.50;;;21.40;58.20;;;;;;5036863;28;20399;-67
2022/10/05 00:26:31;;;;;;;2.60;1.63;;;21.40;58.20;;;;;;5040855;28;20108;-67
2022/10/05 00:28:57;;;;;;;2.05;1.30;;;21.40;58.20;;;;;;5041550;28;20390;-67
2022/10/05 00:31:25;;;;;;;2.67;1.67;;;21.40;58.20;;;;;;5036589;28;20119;-67
2022/10/05 00:33:53;;;;;;;2.17;1.30;;;21.40;58.10;;;;;;5038012;28;20029;-67
2022/10/05 00:36:19;;;;;;;2.15;1.33;;;21.40;58.20;;;;;;5037155;28;20029;-67
2022/10/05 00:38:45;;;;;;;3.10;1.70;;;21.40;58.20;;;;;;5038537;28;20032;-67
2022/10/05 00:41:44;;;;;;;1.90;1.23;;;21.40;58.20;;;;;;5036906;28;20030;-67
2022/10/05 00:44:18;;;;;;;1.98;1.38;;;21.40;58.20;;;;;;5016996;28;20427;-66
2022/10/05 00:47:07;;;;;;;1.95;1.20;;;21.30;58.10;;;;;;5034030;28;20026;-67
2022/10/05 00:49:57;;;;;;;2.22;1.35;;;21.40;58.20;;;;;;5033258;28;20025;-67
2022/10/05 00:52:38;;;;;;;2.63;1.30;;;21.30;58.10;;;;;;5038599;28;20041;-67
2022/10/05 00:55:12;;;;;;;2.10;1.30;;;21.30;58.20;;;;;;5039437;28;20076;-67
2022/10/05 00:57:40;;;;;;;2.97;1.48;;;21.30;58.20;;;;;;5040430;28;20022;-68
2022/10/05 01:00:14;;;;;;;2.28;1.30;;;21.30;58.20;;;;;;5038542;28;20339;-66
2022/10/05 01:03:17;;;;;;;2.03;1.40;;;21.30;58.10;;;;;;5035297;28;20033;-68
2022/10/05 01:06:14;;;;;;;1.95;1.35;;;21.30;58.20;;;;;;5036360;28;20034;-67
2022/10/05 01:08:59;;;;;;;1.90;1.20;;;21.30;58.20;;;;;;5034992;28;20029;-67
2022/10/05 01:11:50;;;;;;;1.92;1.30;;;21.30;58.20;;;;;;5030891;28;20443;-67
2022/10/05 01:14:55;;;;;;;3.67;1.30;;;21.30;58.20;;;;;;5030808;28;20030;-68
2022/10/05 01:17:53;;;;;;;2.40;1.40;;;21.30;58.10;;;;;;5038201;28;20052;-67
2022/10/05 01:20:39;;;;;;;2.30;1.30;;;21.30;58.20;;;;;;5038246;28;20017;-67
2022/10/05 01:23:40;;;;;;;2.38;1.30;;;21.30;58.50;;;;;;5037632;28;20030;-67
2022/10/05 01:26:20;;;;;;;2.33;1.40;;;21.30;58.20;;;;;;5037551;28;20457;-67
2022/10/05 01:29:01;;;;;;;2.35;1.35;;;21.30;58.20;;;;;;5036297;28;20021;-67
2022/10/05 01:31:51;;;;;;;2.00;1.20;;;21.30;58.20;;;;;;5052431;28;20036;-66
2022/10/05 01:34:47;;;;;;;2.97;1.40;;;21.30;58.70;;;;;;5035503;28;20021;-66
2022/10/05 01:37:40;;;;;;;1.95;1.30;;;21.30;58.20;;;;;;5036343;28;20503;-67
2022/10/05 01:40:19;;;;;;;2.22;1.40;;;21.30;58.20;;;;;;5036403;28;20029;-67
2022/10/05 01:43:04;;;;;;;1.95;1.38;;;21.20;58.20;;;;;;5038315;28;20029;-67
2022/10/05 01:45:38;;;;;;;1.98;1.17;;;21.20;58.20;;;;;;5038102;28;20079;-67
2022/10/05 01:48:12;;;;;;;1.70;1.15;;;21.20;58.20;;;;;;5037355;28;20030;-67
2022/10/05 01:51:02;;;;;;;1.88;1.20;;;21.20;58.10;;;;;;5036425;28;20021;-67
2022/10/05 01:53:37;;;;;;;1.77;1.10;;;21.20;58.20;;;;;;5039606;28;20036;-67
2022/10/05 01:56:28;;;;;;;1.67;1.10;;;21.20;58.10;;;;;;5041053;28;20060;-67
2022/10/05 01:59:11;;;;;;;2.03;1.30;;;21.20;58.20;;;;;;5039848;28;20068;-67
2022/10/05 02:01:56;;;;;;;2.53;1.40;;;21.20;58.20;;;;;;5040390;28;20064;-67
2022/10/05 02:04:30;;;;;;;2.28;1.30;;;21.20;58.10;;;;;;5043299;28;20437;-67
2022/10/05 02:06:58;;;;;;;2.05;1.25;;;21.20;58.10;;;;;;5041010;28;20021;-66
2022/10/05 02:09:50;;;;;;;1.73;1.20;;;21.20;58.20;;;;;;5044179;28;20021;-67
2022/10/05 02:12:20;;;;;;;1.92;1.10;;;21.20;58.20;;;;;;5034209;28;20045;-67
2022/10/05 02:14:51;;;;;;;;;;;21.20;58.10;;;;;;5045377;28;20017;-67
2022/10/05 02:17:22;;;;;;;2.28;1.40;;;21.20;58.20;;;;;;5037933;28;20403;-67
2022/10/05 02:19:51;;;;;;;1.85;1.10;;;21.20;58.10;;;;;;5043213;28;20488;-67
2022/10/05 02:22:40;;;;;;;2.00;1.30;;;21.20;58.10;;;;;;5040956;28;20098;-66
2022/10/05 02:25:13;;;;;;;1.55;0.98;;;21.20;58.10;;;;;;5035227;28;20388;-67
2022/10/05 02:28:02;;;;;;;2.08;1.20;;;21.20;58.20;;;;;;5041417;28;20477;-67
2022/10/05 02:30:31;;;;;;;2.42;1.30;;;21.20;58.20;;;;;;5036641;28;20029;-66
2022/10/05 02:33:13;;;;;;;2.15;1.20;;;21.20;58.20;;;;;;5037183;28;20043;-67
2022/10/05 02:35:38;;;;;;;1.52;1.13;;;21.20;58.20;;;;;;5038621;28;20041;-67
2022/10/05 02:38:23;;;;;;;1.63;1.00;;;21.20;58.10;;;;;;5041232;28;20072;-66
2022/10/05 02:41:00;;;;;;;1.92;1.23;;;21.20;58.20;;;;;;5032357;28;20511;-67
2022/10/05 02:43:37;;;;;;;1.98;1.13;;;21.20;58.20;;;;;;5031446;28;20449;-68
2022/10/05 02:46:41;;;;;;;1.80;1.05;;;21.10;58.10;;;;;;5043969;28;20104;-67
2022/10/05 02:49:40;;;;;;;2.50;1.20;;;21.20;58.20;;;;;;5015275;28;20125;-67
2022/10/05 02:52:30;;;;;;;2.22;1.45;;;21.10;58.10;;;;;;5040269;28;20017;-67
2022/10/05 02:55:05;;;;;;;1.55;1.00;;;21.10;58.10;;;;;;5041730;28;20024;-67
2022/10/05 02:57:42;;;;;;;1.63;1.15;;;21.10;58.10;;;;;;5039698;28;20122;-67
2022/10/05 03:00:57;;;;;;;1.80;1.10;;;21.10;58.10;;;;;;5039535;28;20508;-67
2022/10/05 03:03:40;;;;;;;1.65;1.15;;;21.10;58.10;;;;;;5037027;28;20512;-67
2022/10/05 03:06:20;;;;;;;2.03;1.20;;;21.10;58.60;;;;;;5038219;28;20025;-67
2022/10/05 03:09:04;;;;;;;1.73;1.20;;;21.10;58.10;;;;;;5037087;28;20017;-67
2022/10/05 03:11:57;;;;;;;2.90;1.17;;;21.10;58.10;;;;;;5037526;28;20021;-67
2022/10/05 03:14:29;;;;;;;1.33;1.10;;;21.10;58.10;;;;;;5040059;28;20377;-66
2022/10/05 03:17:14;;;;;;;1.40;1.02;;;21.10;58.10;;;;;;5035267;28;20469;-66
2022/10/05 03:20:08;;;;;;;2.03;1.13;;;21.10;58.10;;;;;;5031588;28;20371;-67
2022/10/05 03:22:52;;;;;;;1.65;1.20;;;21.10;58.10;;;;;;5039124;28;20406;-67
2022/10/05 03:25:20;;;;;;;1.75;1.10;;;21.10;58.00;;;;;;5040594;28;20032;-67
2022/10/05 03:28:02;;;;;;;1.35;1.00;;;21.10;58.10;;;;;;5036819;28;20021;-68
2022/10/05 03:30:57;;;;;;;1.60;1.17;;;21.10;58.00;;;;;;5033603;28;20039;-67
2022/10/05 03:33:46;;;;;;;1.75;1.00;;;21.10;58.00;;;;;;5026301;28;20064;-67
2022/10/05 03:36:12;;;;;;;;;;;21.10;58.00;;;;;;5040084;28;20481;-67
2022/10/05 03:39:16;;;;;;;1.60;1.10;;;21.10;58.00;;;;;;5040663;28;19913;-66
2022/10/05 03:41:53;;;;;;;1.60;1.08;;;21.10;58.00;;;;;;5034555;28;20095;-67
2022/10/05 03:44:49;;;;;;;1.90;1.20;;;21.10;58.00;;;;;;5034038;28;20279;-66
2022/10/05 03:47:24;;;;;;;1.63;1.13;;;21.10;58.00;;;;;;5036429;28;20030;-66
2022/10/05 03:50:24;;;;;;;1.67;1.20;;;21.10;58.00;;;;;;5044298;28;20491;-67
2022/10/05 03:52:51;;;;;;;1.17;1.00;;;21.10;58.00;;;;;;5035311;28;20022;-66
2022/10/05 03:55:29;;;;;;;2.10;1.10;;;21.00;58.00;;;;;;5031969;28;20038;-67
2022/10/05 03:57:58;;;;;;;2.00;1.40;;;21.00;57.90;;;;;;5036997;28;20320;-67
2022/10/05 04:00:27;;;;;;;1.67;1.20;;;21.00;57.90;;;;;;5030782;28;20025;-67
2022/10/05 04:03:20;;;;;;;1.40;1.10;;;21.10;58.00;;;;;;5034763;28;20526;-67
2022/10/05 04:05:56;;;;;;;1.70;1.08;;;21.00;57.90;;;;;;5037282;28;20330;-66
2022/10/05 04:09:01;;;;;;;1.73;1.10;;;21.00;57.90;;;;;;5037237;28;20021;-67
2022/10/05 04:11:44;;;;;;;1.58;1.10;;;21.00;58.00;;;;;;5009911;28;20034;-66
2022/10/05 04:14:16;;;;;;;1.70;1.05;;;21.00;57.90;;;;;;5035152;28;20383;-67
2022/10/05 04:16:50;;;;;;;1.70;1.10;;;21.00;57.90;;;;;;5040843;28;20042;-67
2022/10/05 04:19:24;;;;;;;1.50;1.10;;;21.10;57.90;;;;;;5041921;28;20079;-66
2022/10/05 04:22:14;;;;;;;1.38;1.00;;;21.00;57.90;;;;;;5037842;28;20045;-66
2022/10/05 04:24:53;;;;;;;1.70;1.10;;;21.00;57.90;;;;;;5038041;28;20029;-66
2022/10/05 04:27:26;;;;;;;1.67;1.10;;;21.10;58.50;;;;;;5036802;28;20036;-67
2022/10/05 04:30:07;;;;;;;1.88;1.05;;;21.10;58.00;;;;;;5041076;28;20083;-67
2022/10/05 04:32:48;;;;;;;1.20;1.00;;;21.00;57.90;;;;;;5037925;28;20037;-66
2022/10/05 04:35:45;;;;;;;1.42;1.08;;;21.10;58.00;;;;;;5033952;28;20486;-66
2022/10/05 04:38:26;;;;;;;1.65;1.00;;;21.00;57.90;;;;;;5029968;28;20028;-66
2022/10/05 04:41:00;;;;;;;1.65;1.17;;;21.00;57.90;;;;;;5037896;28;20538;-67
2022/10/05 04:43:51;;;;;;;1.70;1.10;;;21.00;57.90;;;;;;5037240;28;20123;-67
2022/10/05 04:46:37;;;;;;;1.25;0.90;;;21.00;57.90;;;;;;5031426;28;20410;-66
2022/10/05 04:49:12;;;;;;;1.83;1.10;;;21.00;57.90;;;;;;5029078;28;20030;-66
2022/10/05 04:51:52;;;;;;;1.52;1.10;;;21.00;57.90;;;;;;5039477;28;20366;-67
2022/10/05 04:54:21;;;;;;;1.48;1.00;;;21.00;58.00;;;;;;5039861;28;20118;-67
2022/10/05 04:56:58;;;;;;;1.60;1.10;;;21.00;58.00;;;;;;5038541;28;20357;-66
2022/10/05 04:59:38;;;;;;;1.27;1.10;;;21.00;58.00;;;;;;5037956;28;20025;-67
2022/10/05 05:02:27;;;;;;;1.27;1.00;;;21.00;58.00;;;;;;5038290;28;20041;-66
2022/10/05 05:05:28;;;;;;;1.50;1.00;;;21.00;58.00;;;;;;5031756;28;20485;-67
2022/10/05 05:08:08;;;;;;;1.58;1.10;;;21.00;58.00;;;;;;5037679;28;20076;-67
2022/10/05 05:10:59;;;;;;;1.23;0.98;;;20.90;57.90;;;;;;5037879;28;20099;-67
2022/10/05 05:13:46;;;;;;;1.80;1.10;;;21.00;58.00;;;;;;5035066;28;20031;-67
2022/10/05 05:16:37;;;;;;;1.30;1.00;;;20.90;58.00;;;;;;5037688;28;20128;-67
2022/10/05 05:19:03;;;;;;;1.38;0.80;;;20.90;58.00;;;;;;5037923;28;20456;-67
2022/10/05 05:22:25;;;;;;;1.05;0.77;;;20.90;58.00;;;;;;5036293;28;20102;-68
2022/10/05 05:25:23;;;;;;;1.23;0.90;;;20.90;58.00;;;;;;5001956;28;20546;-67
2022/10/05 05:28:13;;;;;;;1.70;1.10;;;20.90;58.00;;;;;;5004285;28;20048;-67
2022/10/05 05:30:39;;;;;;;1.20;0.90;;;20.90;58.00;;;;;;5030430;28;20033;-67
2022/10/05 05:33:26;;;;;;;1.67;0.90;;;20.90;58.00;;;;;;5040785;28;20034;-67
2022/10/05 05:36:03;;;;;;;1.40;0.90;;;20.90;58.00;;;;;;5038845;28;20595;-67
2022/10/05 05:39:15;;;;;;;1.40;1.00;;;20.90;58.00;;;;;;5036196;28;20033;-66
2022/10/05 05:41:57;;;;;;;1.83;1.10;;;20.90;58.00;;;;;;5037220;28;20381;-67
2022/10/05 05:44:32;;;;;;;1.73;0.90;;;20.90;58.00;;;;;;5034950;28;20100;-68
2022/10/05 05:47:02;;;;;;;1.02;0.70;;;21.00;58.10;;;;;;5038813;28;20017;-67
2022/10/05 05:49:36;;;;;;;1.30;0.90;;;20.90;58.00;;;;;;5041465;28;20053;-68
2022/10/05 05:52:15;;;;;;;1.15;0.90;;;20.90;58.00;;;;;;5040913;28;20043;-67
2022/10/05 05:54:44;;;;;;;1.23;0.85;;;20.90;58.00;;;;;;5035435;28;20464;-67
2022/10/05 05:57:15;;;;;;;1.25;0.80;;;20.90;58.00;;;;;;5037609;28;20021;-67
2022/10/05 06:00:04;;;;;;;1.40;1.00;;;20.90;58.00;;;;;;5050318;28;20029;-67
2022/10/05 06:02:46;;;;;;;1.60;1.02;;;20.90;58.10;;;;;;5037027;28;20037;-66
2022/10/05 06:05:32;;;;;;;1.00;0.88;;;20.90;58.00;;;;;;5033709;28;20088;-67
2022/10/05 06:08:07;;;;;;;3.08;0.95;;;20.90;58.00;;;;;;5028226;28;20018;-67
2022/10/05 06:10:45;;;;;;;1.23;0.90;;;20.90;58.10;;;;;;5051270;28;20032;-67
2022/10/05 06:13:23;;;;;;;1.27;0.90;;;20.90;58.10;;;;;;5037579;28;20029;-66
2022/10/05 06:15:58;;;;;;;1.63;0.95;;;20.90;58.10;;;;;;5051918;28;20029;-68
2022/10/05 06:18:24;;;;;;;0.90;0.80;;;20.90;58.00;;;;;;5037742;28;20117;-67
2022/10/05 06:21:02;;;;;;;2.03;1.10;;;20.90;58.00;;;;;;5036891;28;20132;-67
2022/10/05 06:23:51;;;;;;;1.63;0.90;;;20.90;58.00;;;;;;5035304;28;20065;-68
2022/10/05 06:26:39;;;;;;;1.23;0.90;;;20.90;58.10;;;;;;5034382;28;20030;-68
2022/10/05 06:29:11;;;;;;;1.25;0.90;;;20.90;58.10;;;;;;5033600;28;20406;-68
2022/10/05 06:32:01;;;;;;;2.15;0.90;;;20.90;58.10;;;;;;5034831;28;20084;-67
2022/10/05 06:34:57;;;;;;;1.63;1.00;;;20.90;58.00;;;;;;5043035;28;20381;-67
2022/10/05 06:37:52;;;;;;;1.67;1.00;;;20.90;58.00;;;;;;5042820;28;20477;-67
2022/10/05 06:40:32;;;;;;;1.63;0.90;;;20.90;58.00;;;;;;5027428;28;20056;-68
2022/10/05 06:43:16;;;;;;;1.40;0.90;;;20.90;58.00;;;;;;5038279;28;20036;-67
2022/10/05 06:45:44;;;;;;;1.98;0.80;;;20.90;58.10;;;;;;5035252;28;20417;-67
2022/10/05 06:48:24;;;;;;;1.00;0.80;;;20.90;58.10;;;;;;5042314;28;20118;-68
2022/10/05 06:50:58;;;;;;;1.50;0.90;;;20.80;58.00;;;;;;5043120;28;20055;-68
2022/10/05 06:54:05;;;;;;;1.30;0.93;;;20.90;58.10;;;;;;5041101;28;20033;-67
2022/10/05 06:56:56;;;;;;;1.52;0.90;;;20.80;58.00;;;;;;5040447;28;20134;-66
2022/10/05 06:59:30;;;;;;;1.30;0.90;;;20.80;58.00;;;;;;5037638;28;20040;-67
2022/10/05 07:02:17;;;;;;;1.10;0.80;;;20.90;58.00;;;;;;5039392;28;20033;-67
2022/10/05 07:05:10;;;;;;;1.40;1.00;;;20.90;58.10;;;;;;5039373;28;20373;-67
2022/10/05 07:07:51;;;;;;;2.58;1.00;;;20.90;58.10;;;;;;5035536;28;20428;-67
2022/10/05 07:10:31;;;;;;;1.83;1.00;;;20.80;58.00;;;;;;5032554;28;20365;-67
2022/10/05 07:13:17;;;;;;;1.65;0.90;;;20.90;58.10;;;;;;5038090;28;20052;-67
2022/10/05 07:16:07;;;;;;;1.88;0.90;;;20.80;58.00;;;;;;5039624;28;20513;-67
2022/10/05 07:19:06;;;;;;;1.45;0.85;;;20.80;58.10;;;;;;5036946;28;20030;-68
2022/10/05 07:22:06;;;;;;;1.30;0.82;;;20.90;58.10;;;;;;5040992;28;20034;-67
2022/10/05 07:24:43;;;;;;;1.15;0.80;;;20.80;58.00;;;;;;5041305;28;20021;-67
2022/10/05 07:27:16;;;;;;;1.13;0.80;;;20.80;58.00;;;;;;5040837;28;20021;-68
2022/10/05 07:30:04;;;;;;;1.15;0.85;;;20.80;58.00;;;;;;5037941;28;20075;-67
2022/10/05 07:32:58;;;;;;;1.35;0.75;;;20.90;58.10;;;;;;5042169;28;20037;-67
2022/10/05 07:38:45;;;;;;;1.38;0.85;;;20.90;58.10;;;;;;5037272;28;20055;-66
2022/10/05 07:41:30;;;;;;;1.40;0.90;;;20.80;58.00;;;;;;5038322;28;20034;-67
2022/10/05 07:44:21;;;;;;;1.25;0.90;;;20.90;58.10;;;;;;5031034;28;20501;-68
2022/10/05 07:47:03;;;;;;;1.52;0.90;;;20.90;58.10;;;;;;5029707;28;20112;-67
2022/10/05 07:49:43;;;;;;;1.50;0.80;;;20.80;58.10;;;;;;5036904;28;20021;-67
2022/10/05 07:52:22;;;;;;;1.20;0.82;;;20.80;58.10;;;;;;5037034;28;20341;-68
2022/10/05 07:55:11;;;;;;;1.77;1.00;;;20.80;58.10;;;;;;5037889;28;20030;-68
2022/10/05 07:58:22;;;;;;;1.33;0.80;;;20.80;58.10;;;;;;5040933;28;20017;-68
2022/10/05 08:01:11;;;;;;;2.28;1.10;;;20.80;58.10;;;;;;5031763;28;20263;-68
2022/10/05 08:03:59;;;;;;;1.25;0.90;;;20.90;58.10;;;;;;5030325;28;20026;-68
2022/10/05 08:06:48;;;;;;;1.58;1.00;;;20.80;58.10;;;;;;5039778;28;20102;-67
2022/10/05 08:09:40;;;;;;;1.52;0.95;;;20.80;58.10;;;;;;5042497;28;20468;-68
2022/10/05 08:12:08;;;;;;;1.42;1.00;;;20.80;58.10;;;;;;5020916;28;20042;-67
2022/10/05 08:14:57;;;;;;;1.52;0.90;;;20.90;58.10;;;;;;5038817;28;20025;-66
2022/10/05 08:17:49;;;;;;;1.40;0.90;;;20.80;58.60;;;;;;5039295;28;20054;-68
2022/10/05 08:20:22;;;;;;;1.38;0.85;;;20.80;58.10;;;;;;5035388;28;20032;-68
2022/10/05 08:22:59;;;;;;;1.45;1.00;;;20.80;58.10;;;;;;5035466;28;20472;-68
2022/10/05 08:25:44;;;;;;;1.85;1.10;;;20.80;58.10;;;;;;5038919;28;20100;-68
2022/10/05 08:28:32;;;;;;;0.80;0.80;;;20.80;58.20;;;;;;5034131;28;20021;-68
2022/10/05 08:31:12;;;;;;;1.63;1.08;;;20.80;58.20;;;;;;5035225;28;20036;-68
2022/10/05 08:33:55;;;;;;;1.58;0.90;;;20.80;58.20;;;;;;5035534;28;20431;-67
2022/10/05 08:36:32;;;;;;;1.10;0.80;;;20.80;58.20;;;;;;5031916;28;20548;-67
2022/10/05 08:39:03;;;;;;;1.70;1.00;;;20.80;58.20;;;;;;5030551;28;20025;-66
2022/10/05 08:42:15;;;;;;;1.67;0.80;;;20.80;58.20;;;;;;5027723;28;20025;-68
2022/10/05 08:45:06;;;;;;;0.93;0.70;;;20.80;58.30;;;;;;5029192;28;20528;-68
2022/10/05 08:47:53;;;;;;;1.88;1.00;;;20.80;58.30;;;;;;5024701;28;20075;-67
2022/10/05 08:50:52;;;;;;;1.20;0.90;;;20.70;58.30;;;;;;5039612;28;20116;-67
2022/10/05 08:53:55;;;;;;;1.25;0.80;;;20.80;58.40;;;;;;5041306;28;20030;-67
2022/10/05 08:56:54;;;;;;;1.15;0.88;;;20.80;58.40;;;;;;5028690;28;20029;-67
2022/10/05 08:59:43;;;;;;;1.45;0.90;;;20.80;58.40;;;;;;5037169;28;20021;-67
2022/10/05 09:02:30;;;;;;;0.70;0.70;;;20.70;58.40;;;;;;5036079;28;20479;-67
2022/10/05 09:05:02;;;;;;;1.05;0.80;;;20.80;58.60;;;;;;5037744;28;20025;-68
2022/10/05 09:07:33;;;;;;;1.10;0.70;;;20.70;58.50;;;;;;5036002;28;20090;-67
2022/10/05 09:10:02;;;;;;;1.60;0.90;;;20.70;58.60;;;;;;5038396;28;20022;-68
2022/10/05 09:13:05;;;;;;;2.17;1.05;;;20.70;58.70;;;;;;5035578;28;20048;-67
2022/10/05 09:15:54;;;;;;;1.00;0.80;;;20.70;58.70;;;;;;5027792;28;20386;-68
2022/10/05 09:18:20;;;;;;;;;;;20.80;58.80;;;;;;5035839;28;20042;-67
2022/10/05 09:20:58;;;;;;;1.30;0.93;;;20.70;58.80;;;;;;5037268;28;19905;-67
2022/10/05 09:23:43;;;;;;;1.37;0.90;;;20.70;58.90;;;;;;5037415;28;20029;-67
2022/10/05 09:26:28;;;;;;;0.88;0.70;;;20.70;58.90;;;;;;5049711;28;20033;-68
2022/10/05 09:29:15;;;;;;;1.58;0.90;;;20.70;58.90;;;;;;5038150;28;20045;-68
2022/10/05 09:31:59;;;;;;;1.45;0.90;;;20.70;59.00;;;;;;5038037;28;20033;-68
2022/10/05 09:34:43;;;;;;;2.03;0.98;;;20.70;59.00;;;;;;5036215;28;20086;-68
2022/10/05 09:37:22;;;;;;;1.17;0.80;;;20.70;59.00;;;;;;5040609;28;20098;-67
2022/10/05 09:40:18;;;;;;;1.38;1.00;;;20.70;59.00;;;;;;5037286;28;20021;-68
2022/10/05 09:42:43;;;;;;;1.20;0.88;;;20.70;59.10;;;;;;5036630;28;20036;-68
2022/10/05 09:45:30;;;;;;;1.20;0.80;;;20.70;59.00;;;;;;5038676;28;20021;-68
2022/10/05 09:48:30;;;;;;;1.20;0.80;;;20.70;59.10;;;;;;5037035;28;20035;-68
2022/10/05 09:50:55;;;;;;;1.17;0.80;;;20.70;59.10;;;;;;5033658;28;20057;-68
2022/10/05 09:53:58;;;;;;;1.55;0.95;;;20.70;59.10;;;;;;5033085;28;20037;-67
2022/10/05 09:56:36;;;;;;;1.25;0.80;;;20.70;59.20;;;;;;5033028;28;20489;-68
2022/10/05 09:59:16;;;;;;;0.82;0.75;;;20.70;59.10;;;;;;5035312;28;20841;-67
2022/10/05 10:02:03;;;;;;;2.05;0.80;;;20.70;59.20;;;;;;5037744;28;20045;-68
2022/10/05 10:04:47;;;;;;;0.98;0.70;;;20.70;59.70;;;;;;5035853;28;20503;-67
2022/10/05 10:07:36;;;;;;;1.58;0.85;;;20.70;59.20;;;;;;5032622;28;20485;-68
2022/10/05 10:10:38;;;;;;;1.20;0.80;;;20.70;59.20;;;;;;5041909;28;20104;-68
2022/10/05 10:13:12;;;;;;;1.20;0.80;;;20.70;59.10;;;;;;5041284;28;20496;-66
2022/10/05 10:15:51;;;;;;;0.95;0.80;;;20.70;59.10;;;;;;5040565;28;20092;-67
2022/10/05 10:18:23;;;;;;;1.00;0.80;;;20.70;59.10;;;;;;5052529;28;20508;-66
2022/10/05 10:20:57;;;;;;;1.25;0.85;;;20.70;59.10;;;;;;5040150;28;20029;-66
2022/10/05 10:23:42;;;;;;;1.10;0.80;;;20.80;59.20;;;;;;5043714;28;20167;-67
2022/10/05 10:26:31;;;;;;;1.20;0.70;;;20.80;59.20;;;;;;5041746;28;20037;-67
2022/10/05 10:29:09;;;;;;;1.30;0.80;;;20.70;59.10;;;;;;5041854;28;20465;-67
2022/10/05 10:32:02;;;;;;;1.08;0.80;;;20.80;59.20;;;;;;5039167;28;20075;-67
2022/10/05 10:35:05;;;;;;;0.95;0.70;;;20.80;59.20;;;;;;5037566;28;20112;-67
2022/10/05 10:37:34;;;;;;;1.17;0.80;;;20.80;59.20;;;;;;5040288;28;20477;-67
2022/10/05 10:40:35;;;;;;;1.30;0.80;;;20.70;59.10;;;;;;5038986;28;20048;-68
2022/10/05 10:43:28;;;;;;;1.33;0.90;;;20.70;59.10;;;;;;5036755;28;20328;-67
2022/10/05 10:45:58;;;;;;;1.38;0.80;;;20.70;59.00;;;;;;5036648;28;20061;-67
2022/10/05 10:48:39;;;;;;;1.70;0.90;;;20.80;59.00;;;;;;5043813;28;20460;-67
2022/10/05 10:51:14;;;;;;;0.93;0.80;;;20.70;59.00;;;;;;5040975;28;20021;-67
2022/10/05 10:54:03;;;;;;;1.20;0.90;;;20.70;59.00;;;;;;5038495;28;20044;-67
2022/10/05 10:56:41;;;;;;;0.98;0.75;;;20.70;59.00;;;;;;5040359;28;20032;-67
2022/10/05 10:59:35;;;;;;;1.70;0.88;;;20.80;59.00;;;;;;5035547;28;20030;-67
2022/10/05 11:02:36;;;;;;;1.48;0.90;;;20.80;58.90;;;;;;5035487;28;20082;-68
2022/10/05 11:05:26;;;;;;;1.90;1.00;;;20.80;58.90;;;;;;5039710;28;20029;-67
2022/10/05 11:08:01;;;;;;;1.40;0.93;;;20.80;58.90;;;;;;5036292;28;20025;-67
2022/10/05 11:10:47;;;;;;;2.20;1.10;;;20.80;58.90;;;;;;5042468;28;20412;-68
2022/10/05 11:13:30;;;;;;;1.90;1.27;;;20.80;58.90;;;;;;5039193;28;20114;-67
2022/10/05 11:16:11;;;;;;;1.98;1.00;;;20.80;58.90;;;;;;5040322;28;20540;-68
2022/10/05 11:18:49;;;;;;;2.00;1.10;;;20.80;58.90;;;;;;5040870;28;20085;-67
2022/10/05 11:21:18;;;;;;;1.38;0.95;;;20.80;58.80;;;;;;5037691;28;20508;-67
2022/10/05 11:24:18;;;;;;;2.35;1.05;;;20.80;58.80;;;;;;5038724;28;20522;-67
2022/10/05 11:27:07;;;;;;;1.33;1.00;;;20.80;58.80;;;;;;5036703;28;20048;-67
2022/10/05 11:30:10;;;;;;;1.75;1.08;;;20.80;58.80;;;;;;5039643;28;20064;-67
2022/10/05 11:33:00;;;;;;;2.75;1.00;;;20.80;58.80;;;;;;5040189;28;20043;-67
2022/10/05 11:35:32;;;;;;;2.78;1.02;;;20.80;58.80;;;;;;5039424;28;20440;-68
2022/10/05 11:38:10;;;;;;;1.77;1.10;;;20.80;58.80;;;;;;5035417;28;20489;-67
2022/10/05 11:40:46;;;;;;;2.28;1.10;;;20.80;58.80;;;;;;5033744;28;20575;-67
2022/10/05 11:43:39;;;;;;;1.58;1.00;;;20.80;58.80;;;;;;5038846;28;20026;-68
2022/10/05 11:46:13;;;;;;;1.40;0.90;;;20.80;58.80;;;;;;5036195;28;20132;-67
2022/10/05 11:48:56;;;;;;;1.90;1.00;;;20.90;58.80;;;;;;5031872;28;20175;-67
2022/10/05 11:51:40;;;;;;;2.72;1.20;;;20.90;58.80;;;;;;5036781;28;20014;-67
2022/10/05 11:54:20;;;;;;;3.35;1.10;;;20.80;58.80;;;;;;5035823;28;20044;-68
2022/10/05 11:56:48;;;;;;;2.30;1.10;;;20.80;58.80;;;;;;5037088;28;20037;-68
2022/10/05 11:59:33;;;;;;;2.72;1.15;;;20.90;58.80;;;;;;5040276;28;20476;-67
2022/10/05 12:02:26;;;;;;;2.75;1.15;;;20.80;58.80;;;;;;5037233;28;20120;-67
2022/10/05 12:05:10;;;;;;;2.67;1.20;;;20.90;58.80;;;;;;5034696;28;20037;-67
2022/10/05 12:08:00;;;;;;;2.05;1.15;;;20.80;58.80;;;;;;5039015;28;20021;-66
2022/10/05 12:10:41;;;;;;;2.70;1.20;;;20.90;58.90;;;;;;5036958;28;20048;-68
2022/10/05 12:13:26;;;;;;;3.33;1.17;;;20.90;58.90;;;;;;5039075;28;20479;-68
2022/10/05 12:16:04;;;;;;;2.33;1.10;;;20.90;58.80;;;;;;5036633;28;20419;-67
2022/10/05 12:18:30;;;;;;;2.25;1.10;;;20.90;58.80;;;;;;5036134;28;20107;-68
2022/10/05 12:21:04;;;;;;;2.10;1.35;;;20.90;58.90;;;;;;5034708;28;20471;-68
2022/10/05 12:23:48;;;;;;;2.25;1.20;;;20.90;58.90;;;;;;5037018;28;20112;-67
2022/10/05 12:26:19;;;;;;;3.30;1.23;;;20.90;58.90;;;;;;5038657;28;20067;-67
2022/10/05 12:28:57;;;;;;;4.10;2.00;;;20.90;58.90;;;;;;5036872;28;20025;-67
2022/10/05 12:31:59;;;;;;;10.35;5.45;;;20.90;58.90;;;;;;5027348;28;20030;-67
2022/10/05 12:34:43;;;;;;;18.55;9.43;;;20.90;59.00;;;;;;5036088;28;20068;-67
2022/10/05 12:37:28;;;;;;;35.95;17.85;;;20.90;58.90;;;;;;5030171;28;20886;-68
2022/10/05 12:40:02;;;;;;;53.00;25.77;;;20.90;58.90;;;;;;5028232;28;20426;-68
2022/10/05 12:42:30;;;;;;;66.97;34.25;;;20.90;58.90;;;;;;5038448;28;20879;-67
2022/10/05 12:45:03;;;;;;;78.38;41.28;;;20.90;58.90;;;;;;5037612;28;20021;-68
2022/10/05 12:47:47;;;;;;;88.25;46.45;;;20.90;58.90;;;;;;5040178;28;20101;-67
2022/10/05 12:50:30;;;;;;;95.32;49.78;;;20.90;59.00;;;;;;5035977;28;20449;-67
2022/10/05 12:53:13;;;;;;;103.43;54.05;;;20.90;59.00;;;;;;5035226;28;20560;-68
2022/10/05 12:56:08;;;;;;;119.95;61.03;;;20.90;59.00;;;;;;5037814;28;20108;-68
2022/10/05 12:59:13;;;;;;;116.65;60.85;;;20.90;59.00;;;;;;5038344;28;20503;-67
2022/10/05 13:01:56;;;;;;;120.88;63.60;;;21.00;59.00;;;;;;5036757;28;20101;-68
2022/10/05 13:04:40;;;;;;;124.68;64.97;;;21.00;59.00;;;;;;5031415;28;20029;-68
2022/10/05 13:07:26;;;;;;;116.18;65.43;;;21.00;59.00;;;;;;5030968;28;20476;-67
2022/10/05 13:10:23;;;;;;;125.53;66.97;;;21.00;59.00;;;;;;5036046;28;20338;-67
2022/10/05 13:13:27;;;;;;;127.82;66.63;;;21.00;59.10;;;;;;5035320;28;20029;-67
2022/10/05 13:16:03;;;;;;;127.43;66.10;;;21.00;59.00;;;;;;5022583;28;20480;-68
2022/10/05 13:18:36;;;;;;;123.10;66.18;;;21.00;59.10;;;;;;5045029;28;20033;-66
2022/10/05 13:21:07;;;;;;;125.53;68.25;;;21.00;59.10;;;;;;5033824;28;20460;-66
2022/10/05 13:23:59;;;;;;;120.63;65.88;;;21.00;59.10;;;;;;5034792;28;20065;-68
2022/10/05 13:26:47;;;;;;;128.07;66.45;;;21.00;59.10;;;;;;5052718;28;20052;-68
2022/10/05 13:29:33;;;;;;;127.30;67.95;;;21.10;59.10;;;;;;5035882;28;20491;-68
2022/10/05 13:32:09;;;;;;;118.38;65.53;;;21.10;59.10;;;;;;5037624;28;20099;-66
2022/10/05 13:34:43;;;;;;;118.40;64.07;;;21.10;59.10;;;;;;5034758;28;20470;-67
2022/10/05 13:37:14;;;;;;;115.75;63.50;;;21.10;59.10;;;;;;5039179;28;20036;-68
2022/10/05 13:39:49;;;;;;;120.20;64.78;;;21.10;59.10;;;;;;5033047;28;20039;-68
2022/10/05 13:42:20;;;;;;;113.75;64.72;;;21.10;59.10;;;;;;5034479;28;20026;-68
2022/10/05 13:45:07;;;;;;;119.28;66.13;;;21.10;59.00;;;;;;5034274;28;20337;-67
2022/10/05 13:48:10;;;;;;;119.18;63.53;;;21.10;59.10;;;;;;5039242;28;20027;-68
2022/10/05 13:51:02;;;;;;;116.05;64.32;;;21.10;59.10;;;;;;5033214;28;20103;-67
2022/10/05 13:53:46;;;;;;;122.30;66.43;;;21.10;59.10;;;;;;5036879;28;20384;-68
2022/10/05 13:56:20;;;;;;;109.30;61.63;;;21.20;59.10;;;;;;5035728;28;20436;-67
2022/10/05 13:59:01;;;;;;;113.15;62.95;;;21.20;59.10;;;;;;5035485;28;20025;-68
2022/10/05 14:02:06;;;;;;;111.45;63.22;;;21.20;59.10;;;;;;5028738;28;20056;-68
2022/10/05 14:05:13;;;;;;;113.03;61.65;;;21.20;59.10;;;;;;5040774;28;20045;-68
2022/10/05 14:07:52;;;;;;;110.57;60.67;;;21.20;59.10;;;;;;5041045;28;20389;-67
2022/10/05 14:10:37;;;;;;;108.90;61.22;;;21.20;59.10;;;;;;5042827;28;20079;-68